KBIF/BIF METAR and TAF weather

Enter ICAO airport designator
Station Type Date Time Source
KBIF METAR 2021/09/16 20:58 UTC NOAA

KBIF 162058Z AUTO 14004KT 10SM CLR 33/08 A2991 RMK AO2 SLP058 T03330077 57025 $


Station Type Date Time Source
KBIF Decoded METAR 2021/09/16 20:58 UTC NOAA

Biggs Army Air Field / Ft. Bliss, TX, United States (KBIF) 31-51N 106-23W
Sep 16, 2021 - 04:58 PM EDT / 2021.09.16 2058 UTC
Wind: from the SE (140 degrees) at 5 MPH (4 KT):0
Visibility: 10 mile(s):0
Sky conditions: clear
Temperature: 91.9 F (33.3 C)
Dew Point: 45.9 F (7.7 C)
Relative Humidity: 20%
Pressure (altimeter): 29.91 in. Hg (1012 hPa)
Pressure tendency: 0.07 inches (2.5 hPa) lower than three hours ago
ob: KBIF 162058Z AUTO 14004KT 10SM CLR 33/08 A2991 RMK AO2 SLP058 T03330077 57025
cycle: 21

Station Type Date Time Source
KBIF TAF 2021/09/16 14:10 UTC NOAA

TAF KBIF 161405Z 1614/1720 VRB06KT 9999 BKN140 QNH2991INS
BECMG 1701/1702 VRB05KT 9999 SKC QNH2991INS TX34/1622Z TN17/1710Z

Example: see airport list